Terminal Aerodrome Forecast
Issued by NWS

Home | Current Version | Previous Version | Text Only | Print | Product List | Glossary On
Versions: 1 2 3 4 5 6 7 8 9 10 11 12 13 14 15 16
000
FTUS43 KICT 020300 AAA
TAFCNU
TAF AMD
KCNU 020324Z 0203/0224 06005KT P6SM VCTS SCT010 OVC030CB
      TEMPO 0203/0207 3SM +TSRA BKN010 OVC025CB
     FM020700 06005KT P6SM VCTS SCT015 BKN035CB
      TEMPO 0210/0213 4SM BR
     FM021600 15008KT P6SM SCT040=

USA.gov is the U.S. government's official web portal to all federal, state and local government web resources and services.